createdAt,value
2018-12-15T00:00:20.699Z,7.93
2018-12-15T00:02:54.415Z,7.70
2018-12-15T00:05:39.076Z,8.30
2018-12-15T00:08:10.414Z,7.37
2018-12-15T00:10:45.244Z,8.37
2018-12-15T00:13:15.949Z,8.50
2018-12-15T00:15:46.373Z,7.57
2018-12-15T00:18:19.555Z,8.80
2018-12-15T00:20:50.029Z,8.33
2018-12-15T00:23:17.494Z,8.30
2018-12-15T00:25:48.575Z,8.70
2018-12-15T00:28:33.353Z,9.30
2018-12-15T00:31:06.802Z,6.37
2018-12-15T00:33:37.571Z,9.00
2018-12-15T00:36:18.436Z,9.33
2018-12-15T00:41:53.190Z,9.13
2018-12-15T00:44:27.304Z,8.63
2018-12-15T00:47:14.112Z,8.10
2018-12-15T00:49:54.950Z,8.70
2018-12-15T00:52:31.105Z,8.77
2018-12-15T00:55:05.007Z,9.03
2018-12-15T00:57:38.430Z,8.37
2018-12-15T01:00:11.853Z,9.43
2018-12-15T01:08:47.461Z,9.23
2018-12-15T01:11:24.683Z,7.67
2018-12-15T01:14:08.724Z,8.40
2018-12-15T01:16:42.545Z,9.10
2018-12-15T01:19:13.486Z,8.77
2018-12-15T01:21:43.989Z,8.60
2018-12-15T01:24:14.759Z,8.67
2018-12-15T01:26:43.459Z,9.13
2018-12-15T01:32:12.024Z,8.77
2018-12-15T01:34:45.904Z,8.67
2018-12-15T01:37:16.872Z,8.40
2018-12-15T01:39:48.294Z,9.73
2018-12-15T01:42:23.536Z,8.13
2018-12-15T01:44:57.098Z,8.67
2018-12-15T01:47:31.128Z,9.13
2018-12-15T01:50:05.196Z,8.83
2018-12-15T01:52:50.766Z,8.87
2018-12-15T01:55:25.034Z,7.90
2018-12-15T01:58:02.316Z,7.83
2018-12-15T02:00:38.042Z,8.50
2018-12-15T02:03:24.400Z,8.20
2018-12-15T02:05:55.086Z,7.67
2018-12-15T02:08:33.195Z,8.60
2018-12-15T02:11:06.251Z,8.07
2018-12-15T02:13:39.557Z,7.80
2018-12-15T02:16:10.482Z,9.17
2018-12-15T02:21:39.065Z,8.27
2018-12-15T02:24:09.864Z,7.60
2018-12-15T02:26:40.251Z,7.90
2018-12-15T02:29:17.285Z,8.43
2018-12-15T02:35:04.046Z,7.97
2018-12-15T02:37:36.271Z,7.33
2018-12-15T02:40:09.629Z,6.97
2018-12-15T02:42:40.397Z,8.03
2018-12-15T02:45:14.256Z,8.17
2018-12-15T02:47:51.892Z,7.33
2018-12-15T02:50:25.397Z,7.67
2018-12-15T02:53:09.441Z,8.23
2018-12-15T02:55:42.611Z,7.97
2018-12-15T02:58:13.301Z,8.63
2018-12-15T03:00:40.754Z,8.60
2018-12-15T03:03:12.139Z,7.67
2018-12-15T03:08:10.861Z,7.57
2018-12-15T03:10:38.315Z,8.83
2018-12-15T03:13:05.751Z,7.67
2018-12-15T03:15:50.396Z,8.17
2018-12-15T03:18:21.337Z,7.43
2018-12-15T03:20:58.542Z,8.33
2018-12-15T03:23:29.836Z,8.40
2018-12-15T03:26:16.507Z,8.53
2018-12-15T03:28:49.942Z,8.37
2018-12-15T03:31:17.413Z,7.27
2018-12-15T03:33:48.675Z,7.80
2018-12-15T03:36:19.939Z,8.13
2018-12-15T03:38:53.128Z,7.67
2018-12-15T03:41:31.401Z,7.30
2018-12-15T03:44:01.900Z,7.47
2018-12-15T03:46:32.686Z,8.00
2018-12-15T03:49:03.604Z,5.83
2018-12-15T03:51:32.750Z,7.27
2018-12-15T03:54:03.253Z,7.57
2018-12-15T03:56:32.043Z,7.17
2018-12-15T03:59:02.743Z,7.08
2018-12-15T04:01:37.064Z,5.97
2018-12-15T04:04:17.045Z,7.77
2018-12-15T04:09:23.543Z,5.90
2018-12-15T04:25:06.302Z,7.03
2018-12-15T04:27:39.563Z,7.17
2018-12-15T04:30:08.517Z,6.53
2018-12-15T04:41:16.957Z,7.63
2018-12-15T04:43:50.816Z,6.30
2018-12-15T04:49:14.586Z,6.27
2018-12-15T04:51:45.579Z,6.40
2018-12-15T04:54:19.159Z,6.30
2018-12-15T04:56:49.820Z,6.00
2018-12-15T04:59:23.440Z,6.33
2018-12-15T05:10:49.319Z,7.33
2018-12-15T05:19:06.270Z,6.83
2018-12-15T05:24:34.113Z,7.50
2018-12-15T05:38:52.579Z,7.30
2018-12-15T05:41:23.354Z,7.80
2018-12-15T05:43:57.460Z,7.50
2018-12-15T05:52:20.509Z,6.07
2018-12-15T06:03:30.953Z,7.20
2018-12-15T06:06:04.731Z,6.20
2018-12-15T06:08:39.741Z,6.83
2018-12-15T06:14:15.555Z,7.00
2018-12-15T06:16:49.124Z,6.87
2018-12-15T06:19:22.841Z,6.63
2018-12-15T06:22:06.882Z,6.87
2018-12-15T06:24:37.634Z,7.47
2018-12-15T06:29:59.559Z,6.57
2018-12-15T06:32:30.497Z,6.63
2018-12-15T06:40:59.120Z,5.93
2018-12-15T06:46:27.529Z,6.90
2018-12-15T06:49:01.231Z,6.30
2018-12-15T06:54:27.649Z,7.13
2018-12-15T07:03:04.667Z,7.03
2018-12-15T07:08:40.623Z,6.30
2018-12-15T07:17:08.009Z,6.87
2018-12-15T07:19:53.095Z,7.40
2018-12-15T07:22:39.522Z,8.63
2018-12-15T07:25:10.753Z,6.63
2018-12-15T07:27:44.262Z,7.43
2018-12-15T07:30:26.945Z,7.53
2018-12-15T07:33:12.448Z,7.63
2018-12-15T07:35:43.415Z,7.57
2018-12-15T07:38:12.565Z,8.20
2018-12-15T07:40:45.742Z,8.87
2018-12-15T07:43:19.194Z,8.47
2018-12-15T07:48:41.145Z,8.37
2018-12-15T07:51:15.371Z,7.90
2018-12-15T07:53:48.967Z,7.20
2018-12-15T07:56:25.359Z,8.67
2018-12-15T07:58:59.240Z,8.10
2018-12-15T08:01:43.156Z,8.90
2018-12-15T08:04:29.746Z,7.90
2018-12-15T08:15:49.140Z,8.67
2018-12-15T08:18:23.021Z,7.53
2018-12-15T08:20:54.293Z,8.17
2018-12-15T08:23:25.432Z,7.40
2018-12-15T08:25:58.500Z,7.73
2018-12-15T08:28:30.385Z,5.60
2018-12-15T08:57:04.726Z,8.37
2018-12-15T08:59:48.654Z,7.20
2018-12-15T09:02:19.901Z,6.87
2018-12-15T09:13:31.599Z,6.83
2018-12-15T09:16:02.269Z,8.73
2018-12-15T09:18:46.382Z,8.43
2018-12-15T09:24:22.090Z,8.97
2018-12-15T09:26:55.726Z,8.10
2018-12-15T09:29:24.635Z,8.90
2018-12-15T09:32:12.089Z,5.70
2018-12-15T09:34:52.906Z,8.97
2018-12-15T09:37:29.172Z,7.70
2018-12-15T09:39:58.424Z,8.97
2018-12-15T09:42:30.290Z,8.47
2018-12-15T09:45:07.443Z,7.50
2018-12-15T09:47:41.536Z,7.77
2018-12-15T09:55:57.354Z,10.43
2018-12-15T09:58:27.953Z,9.37
2018-12-15T10:03:54.499Z,7.30
2018-12-15T10:06:28.187Z,7.67
2018-12-15T10:12:04.713Z,7.83
2018-12-15T10:14:36.012Z,6.17
2018-12-15T10:17:17.115Z,9.00
2018-12-15T10:19:50.322Z,9.03
2018-12-15T10:22:19.209Z,8.77
2018-12-15T10:24:56.740Z,8.77
2018-12-15T10:27:37.318Z,9.27
2018-12-15T10:30:27.158Z,8.90
2018-12-15T10:32:58.713Z,8.10
2018-12-15T10:38:22.544Z,6.27
2018-12-15T10:41:09.370Z,8.97
2018-12-15T10:43:42.840Z,9.90
2018-12-15T10:46:13.606Z,8.13
2018-12-15T10:48:47.171Z,7.13
2018-12-15T10:51:18.390Z,8.80
2018-12-15T10:53:48.886Z,9.20
2018-12-15T10:56:19.644Z,8.93
2018-12-15T10:58:50.092Z,9.37
2018-12-15T11:01:23.847Z,9.80
2018-12-15T11:04:00.656Z,8.87
2018-12-15T11:12:17.811Z,9.50
2018-12-15T11:20:14.764Z,6.80
2018-12-15T11:22:45.603Z,5.73
2018-12-15T11:31:01.883Z,7.87
2018-12-15T11:33:33.352Z,7.80
2018-12-15T11:41:50.267Z,5.30
2018-12-15T11:50:15.716Z,9.30
2018-12-15T11:52:48.497Z,9.60
2018-12-15T12:04:07.562Z,8.60
2018-12-15T12:06:38.372Z,9.90
2018-12-15T12:09:13.733Z,8.03
2018-12-15T12:11:58.951Z,9.20
2018-12-15T12:14:29.290Z,9.63
2018-12-15T12:17:02.740Z,10.30
2018-12-15T12:19:36.251Z,9.47
2018-12-15T12:25:06.224Z,7.90
2018-12-15T12:30:33.040Z,7.87
2018-12-15T12:33:03.705Z,8.70
2018-12-15T12:35:33.281Z,8.27
2018-12-15T12:38:03.883Z,9.07
2018-12-15T12:40:38.250Z,8.60
2018-12-15T12:43:08.747Z,9.30
2018-12-15T12:48:37.154Z,8.97
2018-12-15T12:51:08.499Z,5.20
2018-12-15T13:22:33.503Z,9.57
2018-12-15T13:25:04.311Z,9.47
2018-12-15T13:27:45.922Z,8.93
2018-12-15T13:30:19.863Z,10.10
2018-12-15T13:32:57.217Z,11.03
2018-12-15T13:35:34.574Z,9.37
2018-12-15T13:38:05.204Z,10.13
2018-12-15T13:40:47.547Z,10.70
2018-12-15T13:43:18.203Z,10.23
2018-12-15T13:45:48.912Z,10.33
2018-12-15T13:48:21.240Z,7.77
2018-12-15T13:50:55.001Z,8.87
2018-12-15T13:53:30.360Z,9.53
2018-12-15T13:56:04.149Z,8.53
2018-12-15T13:58:33.257Z,10.00
2018-12-15T14:01:08.705Z,7.63
2018-12-15T14:03:57.256Z,7.83
2018-12-15T14:06:30.596Z,9.73
2018-12-15T14:09:05.667Z,8.30
2018-12-15T14:11:36.196Z,9.53
2018-12-15T14:14:09.391Z,8.63
2018-12-15T14:16:40.203Z,7.50
2018-12-15T14:19:10.934Z,8.90
2018-12-15T14:21:50.586Z,9.13
2018-12-15T14:24:24.009Z,9.13
2018-12-15T14:26:57.593Z,10.03
2018-12-15T14:29:35.465Z,9.13
2018-12-15T14:32:09.026Z,8.67
2018-12-15T14:34:42.566Z,8.07
2018-12-15T14:37:12.438Z,8.37
2018-12-15T14:39:45.920Z,8.90
2018-12-15T14:42:20.330Z,8.47
2018-12-15T14:47:55.599Z,9.83
2018-12-15T14:50:26.509Z,8.63
2018-12-15T14:53:00.379Z,10.17
2018-12-15T14:55:33.283Z,9.93
2018-12-15T14:58:17.093Z,8.60
2018-12-15T15:00:46.204Z,9.67
2018-12-15T15:03:16.887Z,10.10
2018-12-15T15:05:48.974Z,9.80
2018-12-15T15:08:24.160Z,11.20
2018-12-15T15:11:02.494Z,10.43
2018-12-15T15:13:36.117Z,10.30
2018-12-15T15:16:07.751Z,11.23
2018-12-15T15:18:41.300Z,9.97
2018-12-15T15:24:06.754Z,12.47
2018-12-15T15:26:40.131Z,11.57
2018-12-15T15:29:10.854Z,10.07
2018-12-15T15:31:44.308Z,9.03
2018-12-15T15:34:17.698Z,9.30
2018-12-15T15:37:04.656Z,10.50
2018-12-15T15:39:35.350Z,10.80
2018-12-15T15:45:01.974Z,10.40
2018-12-15T15:50:38.778Z,11.40
2018-12-15T15:53:09.667Z,10.13
2018-12-15T15:55:45.899Z,11.80
2018-12-15T15:58:30.134Z,11.90
2018-12-15T16:01:04.047Z,8.87
2018-12-15T16:06:36.471Z,11.13
2018-12-15T16:09:24.848Z,11.40
2018-12-15T16:11:54.088Z,11.23
2018-12-15T16:14:24.695Z,9.87
2018-12-15T16:16:54.118Z,10.13
2018-12-15T16:19:31.620Z,10.53
2018-12-15T16:22:05.008Z,9.20
2018-12-15T16:24:42.776Z,10.87
2018-12-15T16:27:13.612Z,11.73
2018-12-15T16:29:46.725Z,11.37
2018-12-15T16:32:20.506Z,9.83
2018-12-15T16:34:51.225Z,11.63
2018-12-15T16:37:22.822Z,11.07
2018-12-15T16:39:58.539Z,11.60
2018-12-15T16:42:29.467Z,12.67
2018-12-15T16:44:59.213Z,11.07
2018-12-15T16:47:30.079Z,10.93
2018-12-15T16:50:01.094Z,11.87
2018-12-15T16:52:34.826Z,11.13
2018-12-15T16:55:05.936Z,11.70
2018-12-15T16:57:35.017Z,10.23
2018-12-15T17:00:08.868Z,9.47
2018-12-15T17:02:44.362Z,9.00
2018-12-15T17:05:17.865Z,8.17
2018-12-15T17:07:51.386Z,10.97
2018-12-15T17:10:22.357Z,11.90
2018-12-15T17:12:56.587Z,11.77
2018-12-15T17:15:37.719Z,11.13
2018-12-15T17:23:57.500Z,9.33
2018-12-15T17:26:28.940Z,11.13
2018-12-15T17:29:04.909Z,10.50
2018-12-15T17:34:40.706Z,10.80
2018-12-15T17:40:17.102Z,9.43
2018-12-15T17:42:51.335Z,9.97
2018-12-15T17:45:22.536Z,12.30
2018-12-15T17:51:03.217Z,10.40
2018-12-15T17:56:29.399Z,11.47
2018-12-15T17:58:59.355Z,9.17
2018-12-15T18:01:32.514Z,10.00
2018-12-15T18:04:06.161Z,10.03
2018-12-15T18:06:39.316Z,10.87
2018-12-15T18:12:08.383Z,9.83
2018-12-15T18:14:39.656Z,11.77
2018-12-15T18:17:10.872Z,10.80
2018-12-15T18:19:41.514Z,11.40
2018-12-15T18:22:18.555Z,11.70
2018-12-15T18:24:49.359Z,12.07
2018-12-15T18:33:11.236Z,11.90
2018-12-15T18:35:44.441Z,10.60
2018-12-15T18:38:15.843Z,10.93
2018-12-15T18:40:46.330Z,11.37
2018-12-15T18:43:30.573Z,11.63
2018-12-15T18:46:09.100Z,12.40
2018-12-15T18:49:00.837Z,11.53
2018-12-15T18:51:34.976Z,11.10
2018-12-15T18:54:10.941Z,13.13
2018-12-15T18:56:49.927Z,13.37
2018-12-15T18:59:17.404Z,12.17
2018-12-15T19:01:55.744Z,11.93
2018-12-15T19:04:26.674Z,13.43
2018-12-15T19:06:56.074Z,10.97
2018-12-15T19:09:33.641Z,9.93
2018-12-15T19:12:04.888Z,10.13
2018-12-15T19:14:36.272Z,11.33
2018-12-15T19:17:10.400Z,11.53
2018-12-15T19:19:41.354Z,8.63
2018-12-15T19:22:10.680Z,10.40
2018-12-15T19:24:41.445Z,11.00
2018-12-15T19:27:12.027Z,9.43
2018-12-15T19:29:42.543Z,10.97
2018-12-15T19:32:16.229Z,11.67
2018-12-15T19:34:52.543Z,12.73
2018-12-15T19:37:36.960Z,11.03
2018-12-15T19:40:07.187Z,10.93
2018-12-15T19:42:37.690Z,12.00
2018-12-15T19:45:17.908Z,11.63
2018-12-15T19:47:47.187Z,10.60
2018-12-15T19:50:17.879Z,11.00
2018-12-15T19:52:51.056Z,10.50
2018-12-15T19:55:21.914Z,11.23
2018-12-15T19:57:52.310Z,10.90
2018-12-15T20:00:22.004Z,12.10
2018-12-15T20:05:48.728Z,11.90
2018-12-15T20:08:19.385Z,11.70
2018-12-15T20:10:48.056Z,11.20
2018-12-15T20:13:25.526Z,10.60
2018-12-15T20:18:52.794Z,10.40
2018-12-15T20:21:24.129Z,11.00
2018-12-15T20:23:55.476Z,10.77
2018-12-15T20:26:28.725Z,10.53
2018-12-15T20:29:02.378Z,10.80
2018-12-15T20:31:33.397Z,9.27
2018-12-15T20:34:06.871Z,10.20
2018-12-15T20:36:35.576Z,11.13
2018-12-15T20:39:09.393Z,11.15
2018-12-15T20:41:41.077Z,10.80
2018-12-15T20:44:14.996Z,11.10
2018-12-15T20:46:55.008Z,12.07
2018-12-15T20:49:26.196Z,10.97
2018-12-15T20:52:10.900Z,12.07
2018-12-15T20:54:42.531Z,11.20
2018-12-15T20:57:13.957Z,11.70
2018-12-15T20:59:44.612Z,13.13
2018-12-15T21:02:18.239Z,10.83
2018-12-15T21:04:49.136Z,11.87
2018-12-15T21:07:19.991Z,11.67
2018-12-15T21:09:54.225Z,11.03
2018-12-15T21:12:25.258Z,10.53
2018-12-15T21:15:00.394Z,12.10
2018-12-15T21:17:31.313Z,10.13
2018-12-15T21:20:02.159Z,9.70
2018-12-15T21:22:32.842Z,12.53
2018-12-15T21:25:06.055Z,6.03
2018-12-15T21:27:36.932Z,10.30
2018-12-15T21:30:10.980Z,9.93
2018-12-15T21:32:52.714Z,11.23
2018-12-15T21:35:23.971Z,8.57
2018-12-15T21:38:08.415Z,10.43
2018-12-15T21:40:35.905Z,11.13
2018-12-15T21:43:07.904Z,10.45
2018-12-15T21:45:41.230Z,11.57
2018-12-15T21:48:12.230Z,9.63
2018-12-15T21:50:42.937Z,11.20
2018-12-15T21:53:16.285Z,12.57
2018-12-15T21:56:03.423Z,9.00
2018-12-15T21:58:34.138Z,11.77
2018-12-15T22:01:07.387Z,11.23
2018-12-15T22:03:51.399Z,11.37
2018-12-15T22:09:29.138Z,13.27
2018-12-15T22:12:03.547Z,11.50
2018-12-15T22:14:47.704Z,10.47
2018-12-15T22:17:21.695Z,11.60
2018-12-15T22:19:52.724Z,10.60
2018-12-15T22:22:26.489Z,11.23
2018-12-15T22:30:02.849Z,10.00
2018-12-15T22:32:46.800Z,10.23
2018-12-15T22:35:24.833Z,11.53
2018-12-15T22:40:47.964Z,12.77
2018-12-15T22:46:12.017Z,8.53
2018-12-15T22:48:42.840Z,9.30
2018-12-15T22:51:17.319Z,11.20
2018-12-15T22:53:59.799Z,12.20
2018-12-15T22:56:30.392Z,9.83
2018-12-15T23:02:07.746Z,11.57
2018-12-15T23:07:30.246Z,12.53
2018-12-15T23:15:50.471Z,12.30
2018-12-15T23:18:30.812Z,13.20
2018-12-15T23:32:34.563Z,13.00
2018-12-15T23:38:00.918Z,12.63
2018-12-15T23:40:28.475Z,9.13
2018-12-15T23:43:06.684Z,10.13
2018-12-15T23:45:50.830Z,13.07
2018-12-15T23:48:24.720Z,12.57
2018-12-15T23:50:59.130Z,11.57
